This is the latest recevied weather packets stored in our database for station/object SV2RCS-13. If no packets are shown the sender has not sent any weather packets the latest 10 day(s).
| Time | Temp. | Humidity | Pressure | Rain* | Wind** | Luminosity | Snow |
|---|---|---|---|---|---|---|---|
| 1788335958 | 35° C | 20% | 1013.4 hPa | - | - | - | - |
| 1788335359 | 34.44° C | 19% | 1013.6 hPa | - | - | - | - |
| 1788334758 | 34.44° C | 20% | 1013.5 hPa | - | - | - | - |
| 1788334158 | 34.44° C | 20% | 1013.4 hPa | - | - | - | - |
| 1788333558 | 33.33° C | 20% | 1013.8 hPa | - | - | - | - |
| 1788332958 | 33.33° C | 22% | 1013.8 hPa | - | - | - | - |
| 1788332359 | 33.33° C | 20% | 1013.9 hPa | - | - | - | - |
| 1788331758 | 32.78° C | 23% | 1013.9 hPa | - | - | - | - |
| 1788331158 | 32.78° C | 21% | 1013.6 hPa | - | - | - | - |
| 1788330558 | 34.44° C | 19% | 1013.3 hPa | - | - | - | - |
| 1788329958 | 32.78° C | 21% | 1013.8 hPa | - | - | - | - |
| 1788329358 | 32.78° C | 24% | 1013.8 hPa | - | - | - | - |
| 1788328758 | 32.22° C | 25% | 1014 hPa | - | - | - | - |
| 1788324940 | 27.22° C | 38% | 1015.5 hPa | - | - | - | - |
| 1788324340 | 26.11° C | 41% | 1015.7 hPa | - | - | - | - |
| 1788323739 | 25° C | 44% | 1016 hPa | - | - | - | - |
| 1788323141 | 25° C | 45% | 1016.1 hPa | - | - | - | - |
| 1788322543 | 24.44° C | 46% | 1016 hPa | - | - | - | - |
| 1788321940 | 25° C | 46% | 1015.8 hPa | - | - | - | - |
| 1788321339 | 25° C | 46% | 1015.7 hPa | - | - | - | - |
| 1788320740 | 25° C | 46% | 1015.7 hPa | - | - | - | - |
| 1788320141 | 25° C | 45% | 1015.5 hPa | - | - | - | - |
| 1788319540 | 25° C | 44% | 1015.5 hPa | - | - | - | - |
| 1788318942 | 25° C | 44% | 1015.5 hPa | - | - | - | - |
| 1788318339 | 25° C | 43% | 1015.4 hPa | - | - | - | - |
* Rain since midnight (hover to see other rain measurements)
** Current wind speed in m/s (hover to see current wind gust speed)